Time;durP1;ratioP1;P1;durP2;ratioP2;P2;SDS_P1;SDS_P2;PMS_P1;PMS_P2;Temp;Humidity;BMP_temperature;BMP_pressure;BME280_temperature;BME280_humidity;BME280_pressure;Samples;Min_cycle;Max_cycle;Signal;HPM_P1;HPM_P2
2022/09/25 00:01:12;;;;;;;14.47;13.07;;;13.50;99.90;;;;;;5035127;28;20223;-71
2022/09/25 00:03:38;;;;;;;14.27;12.97;;;13.50;99.90;;;;;;5025315;28;20227;-71
2022/09/25 00:06:10;;;;;;;14.43;13.13;;;13.50;99.90;;;;;;5046570;28;20226;-72
2022/09/25 00:08:36;;;;;;;14.10;12.80;;;13.40;99.90;;;;;;5025454;28;20208;-72
2022/09/25 00:11:10;;;;;;;13.90;12.70;;;13.50;99.90;;;;;;5031543;28;20200;-73
2022/09/25 00:13:36;;;;;;;14.37;12.97;;;13.50;99.90;;;;;;5025843;28;20568;-72
2022/09/25 00:16:03;;;;;;;13.67;12.27;;;13.50;99.90;;;;;;5035534;28;20256;-72
2022/09/25 00:21:15;;;;;;;13.90;12.60;;;13.40;99.90;;;;;;5023672;28;20223;-72
2022/09/25 00:23:45;;;;;;;13.20;12.00;;;13.40;99.90;;;;;;5033481;28;20203;-72
2022/09/25 00:26:13;;;;;;;14.37;12.97;;;13.40;99.90;;;;;;5038905;28;20203;-72
2022/09/25 00:28:41;;;;;;;12.60;10.80;;;13.40;99.90;;;;;;5032813;28;20614;-72
2022/09/25 00:31:09;;;;;;;13.93;12.70;;;13.40;99.90;;;;;;5031022;28;20196;-72
2022/09/25 00:33:35;;;;;;;13.57;12.23;;;13.40;99.90;;;;;;5034337;28;20211;-72
2022/09/25 00:36:10;;;;;;;13.60;12.20;;;13.40;99.90;;;;;;5027551;28;20198;-73
2022/09/25 00:38:36;;;;;;;14.57;13.13;;;13.40;99.90;;;;;;5021017;28;20609;-72
2022/09/25 00:41:04;;;;;;;13.83;12.63;;;13.40;99.90;;;;;;5037238;28;20684;-73
2022/09/25 00:43:43;;;;;;;13.30;12.23;;;13.30;99.90;;;;;;5025802;28;20258;-72
2022/09/25 00:46:23;;;;;;;13.40;12.30;;;13.30;99.90;;;;;;5030885;28;20274;-73
2022/09/25 00:48:54;;;;;;;11.70;10.60;;;13.30;99.90;;;;;;5022066;28;20213;-72
2022/09/25 00:51:28;;;;;;;10.97;9.87;;;13.30;99.90;;;;;;5029483;28;20234;-72
2022/09/25 00:53:58;;;;;;;13.37;12.07;;;13.30;99.90;;;;;;5019222;28;20327;-72
2022/09/25 00:56:27;;;;;;;12.47;11.03;;;13.30;99.90;;;;;;5028633;28;20537;-71
2022/09/25 00:58:53;;;;;;;9.97;9.17;;;13.40;99.90;;;;;;5025175;28;20579;-76
2022/09/25 01:01:19;;;;;;;9.93;9.03;;;13.40;99.90;;;;;;5040023;28;20218;-71
2022/09/25 01:03:45;;;;;;;9.03;7.93;;;13.40;99.90;;;;;;5031758;28;20199;-71
2022/09/25 01:06:13;;;;;;;8.77;8.00;;;13.40;99.90;;;;;;5029846;28;20245;-71
2022/09/25 01:08:38;;;;;;;8.70;7.90;;;13.40;99.90;;;;;;5033100;28;20199;-71
2022/09/25 01:11:04;;;;;;;8.47;7.67;;;13.40;99.90;;;;;;5032465;28;20562;-72
2022/09/25 01:13:30;;;;;;;8.53;7.63;;;13.40;99.90;;;;;;5035653;28;20207;-73
2022/09/25 01:16:07;;;;;;;8.20;7.40;;;13.50;99.90;;;;;;5027796;28;20202;-72
2022/09/25 01:18:49;;;;;;;7.40;6.80;;;13.40;99.90;;;;;;5016034;28;20626;-73
2022/09/25 01:21:36;;;;;;;8.80;7.90;;;13.40;99.90;;;;;;5007055;28;20222;-73
2022/09/25 01:24:18;;;;;;;7.63;6.97;;;13.40;99.90;;;;;;5024242;28;20831;-72
2022/09/25 01:27:25;;;;;;;7.63;7.00;;;13.40;99.90;;;;;;5021834;28;20626;-71
2022/09/25 01:30:02;;;;;;;8.17;7.47;;;13.40;99.90;;;;;;5023692;28;20226;-71
2022/09/25 01:32:45;;;;;;;6.83;6.23;;;13.40;99.90;;;;;;5014356;28;20187;-71
2022/09/25 01:35:23;;;;;;;7.23;6.03;;;13.30;99.90;;;;;;5026996;28;20673;-72
2022/09/25 01:38:36;;;;;;;7.93;7.23;;;13.30;99.90;;;;;;5026049;28;20281;-72
2022/09/25 01:41:21;;;;;;;6.43;5.87;;;13.40;99.90;;;;;;5031803;28;20243;-72
2022/09/25 01:44:15;;;;;;;7.50;6.90;;;13.40;99.90;;;;;;5034445;28;20211;-72
2022/09/25 01:46:51;;;;;;;8.00;7.23;;;13.50;99.90;;;;;;5027100;28;20278;-71
2022/09/25 01:49:25;;;;;;;7.43;6.83;;;13.50;99.90;;;;;;5019829;28;20553;-72
2022/09/25 01:51:53;;;;;;;8.73;8.00;;;13.50;99.90;;;;;;5024180;28;20227;-72
2022/09/25 01:54:33;;;;;;;9.13;8.20;;;13.50;99.90;;;;;;5030210;28;20215;-72
2022/09/25 01:57:08;;;;;;;8.27;7.37;;;13.50;99.90;;;;;;5017676;28;20199;-72
2022/09/25 01:59:36;;;;;;;7.90;7.20;;;13.50;99.90;;;;;;5020906;28;20214;-71
2022/09/25 02:02:06;;;;;;;8.50;7.60;;;13.40;99.90;;;;;;5030773;28;20195;-72
2022/09/25 02:04:40;;;;;;;7.33;6.73;;;13.40;99.90;;;;;;5033122;28;20261;-72
2022/09/25 02:07:09;;;;;;;7.90;7.00;;;13.50;99.90;;;;;;5026589;28;20427;-73
2022/09/25 02:09:44;;;;;;;6.57;5.97;;;13.50;99.90;;;;;;5021379;28;20192;-73
2022/09/25 02:12:18;;;;;;;8.13;5.80;;;13.50;99.90;;;;;;5022040;28;20521;-72
2022/09/25 02:14:57;;;;;;;7.20;6.50;;;13.50;99.90;;;;;;5017223;28;20279;-72
2022/09/25 02:20:33;;;;;;;5.67;5.17;;;13.50;99.90;;;;;;5023834;28;20230;-72
2022/09/25 02:23:13;;;;;;;6.53;5.93;;;13.50;99.90;;;;;;5037458;28;20257;-72
2022/09/25 02:25:58;;;;;;;6.63;5.73;;;13.50;99.90;;;;;;5020701;28;20196;-72
2022/09/25 02:28:23;;;;;;;7.00;6.40;;;13.50;99.90;;;;;;5014081;28;20600;-72
2022/09/25 02:30:52;;;;;;;7.60;6.70;;;13.50;99.90;;;;;;5029876;28;20187;-72
2022/09/25 02:33:18;;;;;;;7.47;6.77;;;13.50;99.90;;;;;;5037136;28;20212;-72
2022/09/25 02:35:44;;;;;;;7.37;6.57;;;13.50;99.90;;;;;;5030212;28;20278;-72
2022/09/25 02:38:09;;;;;;;8.93;6.00;;;13.50;99.90;;;;;;5037400;28;20265;-72
2022/09/25 02:40:49;;;;;;;6.60;6.00;;;13.50;99.90;;;;;;5026189;28;20204;-72
2022/09/25 02:43:38;;;;;;;6.23;5.73;;;13.60;99.90;;;;;;5021014;28;20195;-72
2022/09/25 02:46:16;;;;;;;7.30;6.70;;;13.50;99.90;;;;;;5020625;28;20184;-72
2022/09/25 02:49:02;;;;;;;6.60;6.00;;;13.50;99.90;;;;;;5015191;28;20696;-72
2022/09/25 02:51:34;;;;;;;7.10;6.50;;;13.50;99.90;;;;;;5030926;28;20231;-72
2022/09/25 02:54:20;;;;;;;6.93;6.43;;;13.50;99.90;;;;;;5022749;28;20679;-72
2022/09/25 02:56:56;;;;;;;6.53;5.93;;;13.40;99.90;;;;;;5009399;28;20184;-72
2022/09/25 02:59:50;;;;;;;6.20;5.37;;;13.50;99.90;;;;;;5020538;28;20235;-71
2022/09/25 03:02:16;;;;;;;6.87;6.17;;;13.40;99.90;;;;;;5023621;28;20257;-72
2022/09/25 03:04:45;;;;;;;6.07;5.57;;;13.40;99.90;;;;;;5030414;28;20318;-71
2022/09/25 03:07:11;;;;;;;6.87;6.00;;;13.40;99.90;;;;;;5048445;28;20183;-71
2022/09/25 03:09:40;;;;;;;5.80;5.20;;;13.50;99.90;;;;;;5027583;28;20252;-72
2022/09/25 03:12:06;;;;;;;6.67;6.07;;;13.40;99.90;;;;;;5032275;28;20191;-73
2022/09/25 03:14:31;;;;;;;6.07;5.57;;;13.40;99.90;;;;;;5032261;28;20256;-73
2022/09/25 03:17:02;;;;;;;6.57;5.80;;;13.40;99.90;;;;;;5033275;28;20188;-73
2022/09/25 03:19:28;;;;;;;5.87;5.40;;;13.50;99.90;;;;;;5031902;28;20191;-73
2022/09/25 03:21:54;;;;;;;6.43;5.83;;;13.50;99.90;;;;;;5038652;28;20203;-72
2022/09/25 03:24:20;;;;;;;6.80;5.57;;;13.50;99.90;;;;;;5032486;28;20583;-72
2022/09/25 03:26:46;;;;;;;5.80;5.30;;;13.50;99.90;;;;;;5047272;28;20190;-72
2022/09/25 03:29:13;;;;;;;6.47;5.83;;;13.50;99.90;;;;;;5027288;28;20199;-71
2022/09/25 03:31:41;;;;;;;6.23;5.47;;;13.50;99.90;;;;;;5047660;28;20205;-72
2022/09/25 03:34:06;;;;;;;5.70;5.20;;;13.50;99.90;;;;;;5034442;28;20214;-72
2022/09/25 03:36:32;;;;;;;6.33;5.73;;;13.50;99.90;;;;;;5032221;28;20199;-73
2022/09/25 03:38:58;;;;;;;7.00;6.20;;;13.50;99.90;;;;;;5035452;28;20207;-72
2022/09/25 03:41:26;;;;;;;7.23;6.30;;;13.50;99.90;;;;;;5033321;28;20277;-72
2022/09/25 03:43:52;;;;;;;6.67;6.07;;;13.50;99.90;;;;;;5038430;28;20203;-72
2022/09/25 03:46:21;;;;;;;6.80;6.10;;;13.50;99.90;;;;;;5019980;28;20183;-73
2022/09/25 03:48:47;;;;;;;7.13;6.43;;;13.40;99.90;;;;;;5028242;28;20198;-71
2022/09/25 03:51:13;;;;;;;7.63;6.03;;;13.40;99.90;;;;;;5027407;28;20227;-71
2022/09/25 03:53:38;;;;;;;6.87;6.17;;;13.40;99.90;;;;;;5028968;28;20221;-72
2022/09/25 03:56:10;;;;;;;6.60;6.10;;;13.40;99.90;;;;;;5016607;28;20188;-71
2022/09/25 03:58:37;;;;;;;6.77;6.07;;;13.40;99.90;;;;;;5017895;28;20221;-70
2022/09/25 04:01:03;;;;;;;6.80;6.20;;;13.40;99.90;;;;;;5027726;28;20302;-70
2022/09/25 04:03:29;;;;;;;7.03;6.43;;;13.50;99.90;;;;;;5026378;28;20281;-69
2022/09/25 04:05:57;;;;;;;9.47;6.37;;;13.50;99.90;;;;;;5027986;28;20697;-69
2022/09/25 04:08:25;;;;;;;6.40;5.80;;;13.50;99.90;;;;;;5031655;28;20210;-70
2022/09/25 04:10:53;;;;;;;7.63;6.93;;;13.50;99.90;;;;;;5018129;28;20196;-70
2022/09/25 04:13:19;;;;;;;6.10;5.60;;;13.60;99.90;;;;;;5043168;28;20327;-70
2022/09/25 04:15:45;;;;;;;7.33;6.70;;;13.50;99.90;;;;;;5027794;28;20226;-70
2022/09/25 04:18:10;;;;;;;7.93;7.13;;;13.60;99.90;;;;;;5028506;28;20198;-69
2022/09/25 04:20:37;;;;;;;8.33;7.53;;;13.50;99.90;;;;;;5015807;28;20429;-70
2022/09/25 04:23:02;;;;;;;8.07;7.27;;;13.50;99.90;;;;;;5030558;28;20206;-72
2022/09/25 04:25:28;;;;;;;7.47;6.77;;;13.50;99.90;;;;;;5014675;28;20214;-70
2022/09/25 04:27:54;;;;;;;7.53;6.77;;;13.40;99.90;;;;;;5027457;28;20593;-70
2022/09/25 04:30:25;;;;;;;7.93;7.10;;;13.40;99.90;;;;;;5021258;28;20208;-69
2022/09/25 04:35:35;;;;;;;7.97;7.10;;;13.40;99.90;;;;;;5027349;28;20253;-70
2022/09/25 04:38:01;;;;;;;7.77;7.07;;;13.40;99.90;;;;;;5035141;28;20195;-73
2022/09/25 04:40:27;;;;;;;8.07;6.60;;;13.30;99.90;;;;;;5019827;28;20220;-71
2022/09/25 04:43:01;;;;;;;8.53;7.83;;;13.30;99.90;;;;;;5036112;28;20206;-71
2022/09/25 04:45:28;;;;;;;6.73;6.13;;;13.20;99.90;;;;;;5023909;28;20202;-71
2022/09/25 04:47:54;;;;;;;7.63;6.93;;;13.10;99.90;;;;;;5046740;28;20198;-71
2022/09/25 04:50:21;;;;;;;8.13;7.33;;;13.10;99.90;;;;;;5026374;28;20226;-68
2022/09/25 04:52:50;;;;;;;8.13;7.43;;;13.00;99.90;;;;;;5037739;28;20199;-69
2022/09/25 04:55:20;;;;;;;8.17;7.43;;;13.00;99.90;;;;;;5023154;28;20207;-69
2022/09/25 04:57:53;;;;;;;7.90;7.00;;;13.00;99.90;;;;;;5027240;28;20199;-69
2022/09/25 05:00:19;;;;;;;7.97;7.30;;;12.90;99.90;;;;;;5020823;28;20227;-72
2022/09/25 05:02:45;;;;;;;8.57;7.77;;;12.90;99.90;;;;;;5024193;28;20278;-70
2022/09/25 05:05:11;;;;;;;8.47;7.57;;;12.90;99.90;;;;;;5027151;28;20203;-73
2022/09/25 05:07:38;;;;;;;7.80;7.03;;;12.80;99.90;;;;;;5032795;28;20188;-72
2022/09/25 05:10:04;;;;;;;8.90;7.47;;;12.80;99.90;;;;;;5022771;28;20219;-72
2022/09/25 05:12:30;;;;;;;9.17;7.90;;;12.80;99.90;;;;;;5021779;28;20192;-72
2022/09/25 05:14:56;;;;;;;7.07;6.37;;;12.80;99.90;;;;;;5017846;28;20752;-73
2022/09/25 05:17:21;;;;;;;7.90;7.13;;;12.70;99.90;;;;;;5018196;28;20291;-72
2022/09/25 05:19:47;;;;;;;7.77;7.00;;;12.70;99.90;;;;;;5020705;28;20552;-71
2022/09/25 05:22:15;;;;;;;13.97;7.77;;;12.80;99.90;;;;;;5029043;28;20223;-74
2022/09/25 05:24:40;;;;;;;7.23;6.53;;;12.80;99.90;;;;;;5033041;28;20203;-72
2022/09/25 05:27:07;;;;;;;10.80;8.07;;;12.80;99.90;;;;;;5040864;28;20704;-71
2022/09/25 05:29:33;;;;;;;8.00;7.20;;;12.80;99.90;;;;;;5033945;28;20602;-69
2022/09/25 05:31:59;;;;;;;7.60;6.77;;;12.80;99.90;;;;;;5030790;28;20568;-69
2022/09/25 05:34:25;;;;;;;8.93;7.97;;;12.80;99.90;;;;;;5025450;28;20211;-69
2022/09/25 05:36:51;;;;;;;8.80;8.00;;;12.80;99.90;;;;;;5026826;28;20205;-84
2022/09/25 05:39:16;;;;;;;8.10;7.37;;;12.80;99.90;;;;;;5036329;28;20536;-67
2022/09/25 05:41:42;;;;;;;7.90;7.27;;;13.10;99.90;;;;;;5017341;28;20681;-67
2022/09/25 05:44:08;;;;;;;10.40;8.37;;;13.40;99.90;;;;;;5020621;28;20190;-70
2022/09/25 05:46:39;;;;;;;9.23;8.43;;;13.50;99.90;;;;;;5023027;28;20189;-73
2022/09/25 05:49:04;;;;;;;10.50;7.97;;;13.70;99.90;;;;;;5016356;28;20298;-73
2022/09/25 05:51:31;;;;;;;9.17;7.73;;;13.70;99.90;;;;;;5030539;28;20322;-66
2022/09/25 05:53:58;;;;;;;8.60;7.57;;;13.70;99.90;;;;;;5024483;28;20233;-66
2022/09/25 05:56:24;;;;;;;9.23;8.10;;;13.70;99.90;;;;;;5015723;28;20194;-66
2022/09/25 05:58:51;;;;;;;7.90;7.03;;;13.50;99.90;;;;;;5028923;28;20207;-71
2022/09/25 06:01:17;;;;;;;8.83;8.07;;;13.60;99.90;;;;;;5014810;28;20224;-69
2022/09/25 06:03:42;;;;;;;8.97;8.03;;;13.70;99.90;;;;;;5025679;28;20310;-67
2022/09/25 06:06:08;;;;;;;9.67;8.07;;;13.80;99.90;;;;;;5013037;28;20266;-67
2022/09/25 06:08:34;;;;;;;8.77;7.97;;;13.90;99.90;;;;;;5027197;28;20198;-67
2022/09/25 06:11:01;;;;;;;9.70;8.37;;;13.90;99.90;;;;;;5024185;28;20199;-67
2022/09/25 06:13:29;;;;;;;10.23;8.80;;;14.00;99.90;;;;;;5034488;28;20195;-67
2022/09/25 06:15:55;;;;;;;8.53;7.63;;;14.10;99.90;;;;;;5017501;28;20235;-73
2022/09/25 06:18:24;;;;;;;8.93;8.03;;;14.10;99.90;;;;;;5025915;28;20286;-67
2022/09/25 06:20:50;;;;;;;9.50;8.60;;;14.20;99.90;;;;;;5023332;28;20431;-67
2022/09/25 06:23:17;;;;;;;8.17;7.47;;;14.20;99.90;;;;;;5011835;28;20201;-67
2022/09/25 06:25:43;;;;;;;8.80;7.60;;;14.30;99.90;;;;;;5020744;28;20754;-66
2022/09/25 06:28:10;;;;;;;9.67;8.77;;;14.30;99.90;;;;;;5027621;28;20244;-79
2022/09/25 06:30:37;;;;;;;10.07;8.00;;;14.30;99.90;;;;;;5027047;28;20670;-69
2022/09/25 06:33:08;;;;;;;9.60;8.63;;;14.30;99.90;;;;;;5033330;28;20234;-72
2022/09/25 06:35:34;;;;;;;9.00;8.17;;;14.40;99.90;;;;;;5013564;28;20295;-67
2022/09/25 06:38:00;;;;;;;8.70;7.90;;;14.40;99.90;;;;;;5033330;28;20290;-72
2022/09/25 06:40:28;;;;;;;9.43;8.53;;;14.40;99.90;;;;;;5021814;28;20232;-70
2022/09/25 06:43:00;;;;;;;10.13;9.13;;;14.50;99.90;;;;;;5030258;28;20310;-71
2022/09/25 06:45:27;;;;;;;9.97;9.00;;;14.50;99.90;;;;;;5015675;28;20258;-65
2022/09/25 06:47:56;;;;;;;9.53;8.63;;;14.60;99.90;;;;;;5030934;28;20556;-69
2022/09/25 06:50:30;;;;;;;9.67;8.63;;;14.60;99.90;;;;;;5035369;28;20221;-69
2022/09/25 06:52:59;;;;;;;9.57;8.60;;;14.60;99.90;;;;;;5030508;28;20207;-71
2022/09/25 06:55:25;;;;;;;9.30;8.40;;;14.60;99.90;;;;;;5026269;28;20238;-69
2022/09/25 06:57:51;;;;;;;9.37;8.37;;;14.60;99.90;;;;;;5042030;28;20317;-70
2022/09/25 07:00:16;;;;;;;9.97;8.97;;;14.60;99.90;;;;;;5029282;28;20322;-69
2022/09/25 07:05:30;;;;;;;9.47;8.57;;;14.50;99.90;;;;;;5032185;28;20246;-79
2022/09/25 07:07:55;;;;;;;11.77;9.20;;;14.60;99.90;;;;;;5030109;28;20194;-66
2022/09/25 07:10:21;;;;;;;10.70;9.70;;;14.60;99.90;;;;;;5030662;28;20208;-69
2022/09/25 07:12:47;;;;;;;9.70;8.80;;;14.60;99.90;;;;;;5040125;28;20195;-77
2022/09/25 07:15:14;;;;;;;10.70;9.60;;;14.60;99.90;;;;;;5029565;28;20227;-69
2022/09/25 07:17:44;;;;;;;12.17;9.47;;;14.70;99.90;;;;;;5020419;28;20579;-70
2022/09/25 07:20:14;;;;;;;10.53;9.60;;;14.70;99.90;;;;;;5021970;28;20224;-70
2022/09/25 07:22:40;;;;;;;9.87;8.97;;;14.70;99.90;;;;;;5030056;28;20196;-70
2022/09/25 07:25:06;;;;;;;10.57;9.57;;;14.70;99.90;;;;;;5033468;28;20195;-70
2022/09/25 07:27:32;;;;;;;11.73;10.50;;;14.80;99.90;;;;;;5036653;28;20195;-82
2022/09/25 07:29:57;;;;;;;10.93;9.93;;;14.80;99.90;;;;;;5037775;28;20199;-70
2022/09/25 07:32:23;;;;;;;11.17;9.97;;;14.80;99.90;;;;;;5020508;28;20248;-67
2022/09/25 07:34:49;;;;;;;10.67;9.60;;;14.90;99.90;;;;;;5023736;28;20233;-67
2022/09/25 07:37:15;;;;;;;10.07;9.17;;;15.00;99.90;;;;;;5019598;28;20215;-67
2022/09/25 07:39:41;;;;;;;10.43;9.37;;;15.10;99.90;;;;;;5027604;28;20203;-66
2022/09/25 07:42:07;;;;;;;10.33;9.33;;;15.20;99.90;;;;;;5017880;28;20187;-71
2022/09/25 07:44:32;;;;;;;11.30;9.83;;;15.30;99.90;;;;;;5021992;28;20294;-73
2022/09/25 07:47:00;;;;;;;12.60;9.83;;;15.40;99.90;;;;;;5015691;28;20263;-69
2022/09/25 07:49:26;;;;;;;10.20;9.30;;;15.40;99.90;;;;;;5024193;28;20211;-70
2022/09/25 07:51:51;;;;;;;10.17;9.27;;;15.40;99.90;;;;;;5017213;28;20302;-71
2022/09/25 07:54:17;;;;;;;11.47;10.37;;;15.40;99.90;;;;;;5019776;28;20613;-69
2022/09/25 07:56:42;;;;;;;10.70;9.43;;;15.40;99.90;;;;;;5018783;28;20179;-74
2022/09/25 07:59:08;;;;;;;10.17;9.27;;;15.40;99.90;;;;;;5020023;28;20232;-69
2022/09/25 08:01:33;;;;;;;10.20;9.20;;;15.50;99.90;;;;;;5018474;28;20218;-69
2022/09/25 08:03:59;;;;;;;10.70;9.60;;;15.50;99.90;;;;;;5017554;28;20598;-69
2022/09/25 08:06:25;;;;;;;11.20;10.10;;;15.60;99.90;;;;;;5018787;28;20638;-69
2022/09/25 08:08:50;;;;;;;11.13;10.00;;;15.50;99.90;;;;;;5020153;28;20227;-68
2022/09/25 08:11:17;;;;;;;11.27;10.27;;;15.60;99.90;;;;;;5027261;28;20211;-68
2022/09/25 08:13:43;;;;;;;11.60;10.40;;;15.60;99.90;;;;;;5030514;28;20665;-70
2022/09/25 08:16:17;;;;;;;11.10;10.03;;;15.60;99.90;;;;;;5021790;28;20832;-70
2022/09/25 08:18:45;;;;;;;11.33;9.80;;;15.70;99.90;;;;;;5025481;28;20266;-68
2022/09/25 08:21:13;;;;;;;13.03;10.23;;;15.70;99.90;;;;;;5027122;28;20594;-67
2022/09/25 08:23:43;;;;;;;11.77;10.57;;;15.80;99.90;;;;;;5031271;28;20252;-68
2022/09/25 08:26:08;;;;;;;11.03;10.03;;;15.80;99.90;;;;;;5018695;28;20678;-68
2022/09/25 08:28:34;;;;;;;11.37;10.10;;;15.90;99.90;;;;;;5034575;28;20187;-69
2022/09/25 08:31:03;;;;;;;11.77;10.57;;;16.00;99.90;;;;;;5020910;28;20693;-68
2022/09/25 08:33:29;;;;;;;11.80;10.60;;;16.10;99.90;;;;;;5036312;28;20199;-68
2022/09/25 08:35:57;;;;;;;12.43;10.70;;;16.10;99.90;;;;;;5023917;28;20207;-68
2022/09/25 08:38:23;;;;;;;11.57;10.53;;;16.20;99.90;;;;;;5032012;28;20564;-68
2022/09/25 08:41:20;;;;;;;11.23;10.23;;;16.20;99.90;;;;;;5025546;28;20215;-68
2022/09/25 08:44:09;;;;;;;10.43;9.23;;;16.30;99.90;;;;;;5023924;28;20191;-69
2022/09/25 08:49:28;;;;;;;11.50;10.20;;;16.40;99.90;;;;;;5025493;28;20211;-68
2022/09/25 08:51:58;;;;;;;10.77;9.87;;;16.40;99.90;;;;;;5016647;28;20259;-68
2022/09/25 08:54:26;;;;;;;11.43;10.00;;;16.40;99.90;;;;;;5038715;28;20207;-67
2022/09/25 08:56:57;;;;;;;12.30;10.83;;;16.30;99.90;;;;;;5026060;28;20195;-67
2022/09/25 08:59:32;;;;;;;11.23;10.13;;;16.40;99.90;;;;;;5010977;28;21023;-67
2022/09/25 09:02:02;;;;;;;11.60;10.40;;;16.50;99.90;;;;;;5026725;28;20277;-67
2022/09/25 09:04:31;;;;;;;12.90;10.90;;;16.50;99.90;;;;;;5024042;28;20204;-67
2022/09/25 09:07:10;;;;;;;11.80;10.80;;;16.70;99.90;;;;;;5012379;28;20199;-68
2022/09/25 09:09:59;;;;;;;11.83;10.13;;;16.90;99.90;;;;;;5036953;28;20996;-68
2022/09/25 09:12:55;;;;;;;11.43;9.70;;;17.10;99.90;;;;;;5020293;28;20211;-68
2022/09/25 09:15:20;;;;;;;10.17;9.23;;;17.40;99.90;;;;;;5018458;28;20195;-68
2022/09/25 09:17:46;;;;;;;11.47;10.23;;;17.50;99.90;;;;;;5028480;28;20188;-68
2022/09/25 09:20:22;;;;;;;11.53;10.37;;;17.40;99.90;;;;;;5026952;28;20215;-68
2022/09/25 09:22:52;;;;;;;11.50;10.40;;;17.40;99.90;;;;;;5008328;28;20661;-68
2022/09/25 09:25:27;;;;;;;10.60;9.53;;;17.50;99.90;;;;;;5034330;28;20283;-68
2022/09/25 09:28:21;;;;;;;11.90;10.60;;;17.60;99.90;;;;;;5027954;28;20197;-68
2022/09/25 09:31:21;;;;;;;11.20;10.07;;;17.20;99.90;;;;;;5021225;28;20210;-68
2022/09/25 09:33:58;;;;;;;11.50;10.40;;;17.10;99.90;;;;;;5011649;28;20183;-68
2022/09/25 09:36:45;;;;;;;11.07;9.67;;;17.30;99.90;;;;;;5025974;28;20328;-68
2022/09/25 09:39:33;;;;;;;10.57;9.53;;;17.40;99.90;;;;;;5012806;28;20195;-66
2022/09/25 09:42:31;;;;;;;11.73;10.53;;;17.40;99.90;;;;;;5019790;28;20207;-68
2022/09/25 09:45:34;;;;;;;11.07;10.03;;;17.20;99.90;;;;;;5010973;28;20219;-68
2022/09/25 09:48:41;;;;;;;11.53;10.00;;;17.30;99.90;;;;;;5038377;28;20242;-68
2022/09/25 09:51:18;;;;;;;11.50;10.40;;;17.50;99.90;;;;;;5021742;28;20227;-70
2022/09/25 09:53:47;;;;;;;11.57;10.00;;;17.30;99.90;;;;;;5019851;28;20219;-69
2022/09/25 09:56:18;;;;;;;11.87;10.67;;;17.20;99.90;;;;;;5023561;28;20211;-69
2022/09/25 09:58:59;;;;;;;12.47;11.20;;;17.50;99.90;;;;;;5023521;28;20193;-69
2022/09/25 10:01:29;;;;;;;13.23;11.30;;;17.70;99.90;;;;;;5026183;28;20242;-69
2022/09/25 10:04:04;;;;;;;11.83;9.60;;;17.80;99.90;;;;;;5024501;28;20197;-70
2022/09/25 10:06:34;;;;;;;10.67;9.57;;;17.90;99.90;;;;;;5023327;28;20229;-71
2022/09/25 10:09:00;;;;;;;10.90;9.80;;;18.00;99.90;;;;;;5013229;28;20189;-69
2022/09/25 10:11:27;;;;;;;10.13;9.33;;;18.10;99.90;;;;;;5019335;28;20205;-70
2022/09/25 10:13:55;;;;;;;10.50;9.50;;;18.20;99.90;;;;;;5026864;28;20204;-71
2022/09/25 10:16:23;;;;;;;11.20;9.90;;;18.40;99.90;;;;;;5026750;28;20212;-72
2022/09/25 10:19:01;;;;;;;10.87;9.87;;;18.60;99.90;;;;;;5018771;28;20206;-68
2022/09/25 10:21:36;;;;;;;9.10;8.33;;;18.60;99.90;;;;;;5014350;28;20604;-68
2022/09/25 10:24:02;;;;;;;8.27;7.57;;;18.50;99.90;;;;;;5028571;28;20219;-71
2022/09/25 10:26:28;;;;;;;8.57;7.60;;;18.50;99.90;;;;;;5022412;28;20666;-68
2022/09/25 10:28:59;;;;;;;8.23;7.43;;;18.70;99.90;;;;;;5028684;28;20214;-69
2022/09/25 10:31:29;;;;;;;7.93;7.07;;;18.80;99.90;;;;;;5025098;28;20199;-72
2022/09/25 10:34:22;;;;;;;8.50;7.60;;;18.80;99.90;;;;;;5043556;28;20608;-70
2022/09/25 10:36:50;;;;;;;7.50;6.80;;;18.90;99.90;;;;;;5010955;28;20262;-69
2022/09/25 10:39:31;;;;;;;9.50;7.33;;;19.10;99.90;;;;;;5023393;28;20267;-69
2022/09/25 10:41:58;;;;;;;7.50;6.70;;;19.10;99.90;;;;;;5021672;28;20210;-73
2022/09/25 10:44:38;;;;;;;8.33;7.50;;;19.10;99.90;;;;;;5023303;28;20752;-67
2022/09/25 10:50:18;;;;;;;7.40;6.80;;;19.40;99.90;;;;;;5012626;28;20569;-66
2022/09/25 10:52:48;;;;;;;7.57;6.87;;;19.30;99.90;;;;;;5021287;28;20231;-71
2022/09/25 10:55:36;;;;;;;6.97;6.37;;;19.40;99.90;;;;;;5019534;28;20199;-69
2022/09/25 10:58:10;;;;;;;7.90;6.73;;;19.50;99.90;;;;;;5023253;28;20180;-70
2022/09/25 11:00:45;;;;;;;7.97;7.30;;;19.50;99.90;;;;;;5026658;28;20223;-68
2022/09/25 11:03:41;;;;;;;6.87;6.27;;;19.30;99.90;;;;;;5021134;28;20682;-68
2022/09/25 11:06:19;;;;;;;7.67;6.97;;;19.50;99.90;;;;;;5020224;28;20209;-67
2022/09/25 11:08:48;;;;;;;7.70;7.00;;;19.90;99.90;;;;;;5014095;28;20188;-70
2022/09/25 11:11:20;;;;;;;7.00;6.30;;;19.80;99.30;;;;;;5031358;28;20616;-69
2022/09/25 11:13:49;;;;;;;7.77;7.07;;;19.90;99.40;;;;;;5017613;28;20249;-69
2022/09/25 11:16:16;;;;;;;7.23;6.50;;;20.00;99.90;;;;;;5031746;28;20213;-68
2022/09/25 11:18:45;;;;;;;6.27;5.73;;;20.20;99.00;;;;;;5035025;28;20192;-68
2022/09/25 11:21:24;;;;;;;7.00;6.30;;;20.30;99.40;;;;;;5027841;28;20209;-74
2022/09/25 11:23:58;;;;;;;6.70;6.10;;;20.60;99.60;;;;;;5029660;28;20585;-67
2022/09/25 11:26:31;;;;;;;7.73;6.87;;;20.80;98.70;;;;;;5021269;28;20286;-67
2022/09/25 11:29:29;;;;;;;6.50;5.90;;;20.00;99.00;;;;;;5026348;28;20204;-68
2022/09/25 11:32:14;;;;;;;7.23;5.87;;;19.70;99.40;;;;;;5024947;28;20208;-68
2022/09/25 11:35:02;;;;;;;7.80;7.10;;;19.60;99.70;;;;;;5018226;28;20199;-67
2022/09/25 11:38:04;;;;;;;6.60;5.90;;;19.80;99.30;;;;;;5021033;28;20228;-68
2022/09/25 11:43:43;;;;;;;7.67;6.93;;;19.50;99.30;;;;;;5021955;28;20212;-67
2022/09/25 11:46:38;;;;;;;8.47;6.77;;;19.70;98.70;;;;;;5017440;28;20611;-68
2022/09/25 11:49:15;;;;;;;6.47;5.87;;;19.60;98.50;;;;;;5012928;28;20211;-68
2022/09/25 11:52:17;;;;;;;6.73;6.13;;;19.60;98.60;;;;;;5023688;28;20253;-71
2022/09/25 11:55:19;;;;;;;6.63;6.03;;;19.40;99.20;;;;;;5021733;28;20196;-68
2022/09/25 11:58:23;;;;;;;6.87;6.00;;;20.00;97.50;;;;;;5018821;28;20190;-69
2022/09/25 12:01:11;;;;;;;8.50;6.03;;;20.30;97.00;;;;;;5018568;28;20218;-72
2022/09/25 12:03:50;;;;;;;8.33;6.53;;;20.60;96.50;;;;;;5010597;28;20194;-72
2022/09/25 12:06:39;;;;;;;6.97;6.27;;;20.70;96.50;;;;;;5017125;28;20208;-72
2022/09/25 12:09:41;;;;;;;6.37;5.47;;;20.50;95.90;;;;;;5018335;28;20835;-72
2022/09/25 12:12:36;;;;;;;6.07;5.57;;;20.50;95.60;;;;;;5016361;28;20597;-72
2022/09/25 12:15:08;;;;;;;6.47;5.73;;;20.80;95.10;;;;;;5016298;28;20199;-68
2022/09/25 12:17:57;;;;;;;5.53;5.03;;;21.20;94.10;;;;;;5019798;28;20284;-68
2022/09/25 12:20:45;;;;;;;7.87;6.57;;;21.60;97.30;;;;;;5037691;28;20745;-71
2022/09/25 12:23:14;;;;;;;6.80;6.20;;;21.80;94.50;;;;;;5026346;28;20265;-67
2022/09/25 12:25:54;;;;;;;7.17;6.47;;;21.70;93.60;;;;;;5034911;28;20294;-66
2022/09/25 12:28:37;;;;;;;5.93;5.40;;;22.20;94.90;;;;;;5006831;28;20185;-74
2022/09/25 12:31:22;;;;;;;6.67;6.07;;;22.30;93.10;;;;;;5023521;28;20206;-73
2022/09/25 12:34:19;;;;;;;7.53;6.37;;;22.30;93.70;;;;;;5026992;28;20201;-70
2022/09/25 12:36:55;;;;;;;5.87;5.37;;;22.30;92.90;;;;;;5021375;28;20613;-81
2022/09/25 12:39:31;;;;;;;6.37;5.10;;;22.50;94.30;;;;;;5020829;28;20195;-68
2022/09/25 12:42:19;;;;;;;6.10;5.47;;;22.90;92.70;;;;;;5020014;28;20743;-69
2022/09/25 12:45:00;;;;;;;6.13;5.53;;;23.70;92.30;;;;;;5015106;28;20195;-67
2022/09/25 12:47:36;;;;;;;5.57;5.07;;;23.80;90.30;;;;;;5011511;28;20668;-69
2022/09/25 12:50:02;;;;;;;5.90;5.30;;;22.10;91.00;;;;;;5015152;28;20192;-71
2022/09/25 12:52:36;;;;;;;5.90;5.37;;;20.90;92.60;;;;;;5019462;28;20218;-68
2022/09/25 12:55:12;;;;;;;6.43;5.83;;;20.50;93.30;;;;;;5011139;28;20192;-68
2022/09/25 12:57:53;;;;;;;9.10;5.80;;;20.60;93.70;;;;;;5025766;28;20298;-69
2022/09/25 13:00:22;;;;;;;4.87;4.47;;;20.90;93.60;;;;;;5021522;28;20550;-69
2022/09/25 13:03:07;;;;;;;5.30;4.87;;;21.60;93.60;;;;;;5024966;28;20231;-66
2022/09/25 13:05:36;;;;;;;5.67;5.17;;;22.30;92.60;;;;;;5011946;28;20187;-67
2022/09/25 13:08:13;;;;;;;6.03;5.33;;;22.50;92.00;;;;;;5025820;28;20214;-67
2022/09/25 13:10:45;;;;;;;6.97;5.80;;;21.70;93.20;;;;;;5012430;28;20206;-68
2022/09/25 13:13:18;;;;;;;6.53;5.67;;;21.70;93.10;;;;;;5025934;28;20187;-68
2022/09/25 13:15:59;;;;;;;6.50;5.97;;;21.20;93.60;;;;;;5037160;28;20324;-68
2022/09/25 13:18:29;;;;;;;6.50;5.90;;;21.30;93.80;;;;;;5009212;28;20186;-66
2022/09/25 13:20:56;;;;;;;6.77;6.10;;;21.40;93.90;;;;;;5034750;28;20241;-65
2022/09/25 13:23:31;;;;;;;5.90;5.37;;;21.40;94.10;;;;;;5030747;28;20193;-66
2022/09/25 13:26:00;;;;;;;8.43;5.73;;;21.40;93.70;;;;;;5024214;28;20603;-66
2022/09/25 13:28:31;;;;;;;6.70;6.10;;;22.10;93.00;;;;;;5026153;28;20200;-67